Time;durP1;ratioP1;P1;durP2;ratioP2;P2;SDS_P1;SDS_P2;PMS_P1;PMS_P2;Temp;Humidity;BMP_temperature;BMP_pressure;BME280_temperature;BME280_humidity;BME280_pressure;Samples;Min_cycle;Max_cycle;Signal;HPM_P1;HPM_P2
2022/04/20 00:00:20;;;;;;;9.85;6.07;;;;;;;1.32;88.86;95203.34;5076733;28;20051;-72
2022/04/20 00:03:02;;;;;;;9.90;5.80;;;;;;;1.30;89.39;95212.34;5065057;28;20056;-73
2022/04/20 00:05:32;;;;;;;7.70;5.57;;;;;;;1.19;89.72;95204.31;5084846;28;20048;-73
2022/04/20 00:07:57;;;;;;;9.45;5.43;;;;;;;1.17;89.46;95195.94;5073621;28;20124;-72
2022/04/20 00:10:23;;;;;;;8.55;5.18;;;;;;;1.13;90.10;95199.19;5070815;28;20664;-73
2022/04/20 00:12:48;;;;;;;8.23;5.55;;;;;;;1.11;90.09;95196.81;5068657;28;20040;-73
2022/04/20 00:15:14;;;;;;;9.27;5.78;;;;;;;1.01;90.25;95196.53;5071741;28;20082;-72
2022/04/20 00:17:39;;;;;;;10.30;5.63;;;;;;;1.10;90.09;95195.22;5074247;28;20094;-71
2022/04/20 00:20:06;;;;;;;9.43;5.50;;;;;;;1.14;89.97;95196.38;5068407;28;20048;-73
2022/04/20 00:22:31;;;;;;;12.20;5.57;;;;;;;1.07;90.56;95208.63;5071000;28;20052;-73
2022/04/20 00:24:57;;;;;;;13.13;6.18;;;;;;;0.95;91.41;95207.75;5074678;28;20044;-72
2022/04/20 00:27:22;;;;;;;9.68;6.45;;;;;;;0.87;92.24;95206.25;5069995;28;20043;-72
2022/04/20 00:29:48;;;;;;;9.35;5.75;;;;;;;0.80;91.74;95202.91;5078610;28;20048;-72
2022/04/20 00:32:13;;;;;;;13.27;5.93;;;;;;;0.84;91.44;95202.28;5091674;28;20040;-72
2022/04/20 00:34:39;;;;;;;10.20;5.70;;;;;;;0.78;91.24;95200.56;5078783;28;20036;-72
2022/04/20 00:37:04;;;;;;;9.50;6.07;;;;;;;0.75;91.61;95193.22;5085021;28;20683;-73
2022/04/20 00:39:30;;;;;;;9.93;5.70;;;;;;;0.74;91.93;95196.81;5086926;28;20476;-72
2022/04/20 00:41:56;;;;;;;8.35;5.63;;;;;;;0.72;91.63;95193.66;5074266;28;20055;-73
2022/04/20 00:44:24;;;;;;;9.07;5.45;;;;;;;0.55;91.87;95195.19;5072346;28;20069;-71
2022/04/20 00:46:52;;;;;;;9.35;5.63;;;;;;;0.50;91.82;95194.06;5070619;28;20040;-73
2022/04/20 00:49:17;;;;;;;8.32;5.43;;;;;;;0.59;90.85;95189.38;5072042;28;20052;-73
2022/04/20 00:52:00;;;;;;;8.90;5.80;;;;;;;0.48;91.51;95188.28;5055086;28;20509;-74
2022/04/20 00:54:26;;;;;;;9.32;5.50;;;;;;;0.37;91.61;95191.56;5069867;28;20048;-74
2022/04/20 00:56:51;;;;;;;10.73;6.40;;;;;;;0.31;92.18;95182.84;5078086;28;20113;-73
2022/04/20 00:59:23;;;;;;;14.57;6.55;;;;;;;0.28;92.92;95182.50;5072470;28;20033;-74
2022/04/20 01:01:50;;;;;;;11.73;6.03;;;;;;;0.36;93.19;95184.81;5067178;28;20044;-73
2022/04/20 01:04:16;;;;;;;12.57;6.03;;;;;;;0.44;92.36;95181.94;5070453;28;20044;-73
2022/04/20 01:06:42;;;;;;;8.73;5.57;;;;;;;0.31;92.45;95176.88;5069484;28;20064;-74
2022/04/20 01:09:08;;;;;;;9.60;5.80;;;;;;;0.26;93.23;95184.50;5081188;28;20044;-74
2022/04/20 01:11:34;;;;;;;9.48;6.03;;;;;;;0.16;92.95;95185.78;5086617;28;20459;-74
2022/04/20 01:14:00;;;;;;;11.07;6.13;;;;;;;0.17;93.43;95182.19;5075468;28;20040;-74
2022/04/20 01:16:26;;;;;;;9.52;5.53;;;;;;;0.20;92.91;95175.00;5090755;28;20047;-74
2022/04/20 01:18:53;;;;;;;8.60;5.60;;;;;;;0.20;92.67;95180.16;5078582;28;20501;-74
2022/04/20 01:21:19;;;;;;;9.05;5.95;;;;;;;0.15;93.26;95179.00;5067460;28;20047;-74
2022/04/20 01:23:44;;;;;;;10.45;6.68;;;;;;;0.19;93.71;95173.41;5076277;28;20055;-73
2022/04/20 01:26:11;;;;;;;8.35;5.70;;;;;;;0.22;93.86;95173.00;5066877;28;20052;-72
2022/04/20 01:28:38;;;;;;;8.65;5.68;;;;;;;0.26;92.77;95169.78;5068773;28;20040;-73
2022/04/20 01:31:07;;;;;;;8.75;6.00;;;;;;;0.07;94.40;95171.53;5082439;28;20040;-74
2022/04/20 01:33:33;;;;;;;8.88;6.07;;;;;;;-0.03;95.54;95176.34;5072193;28;20448;-75
2022/04/20 01:35:59;;;;;;;11.07;6.57;;;;;;;0.10;94.72;95165.91;5077857;28;20044;-74
2022/04/20 01:38:25;;;;;;;10.93;6.20;;;;;;;0.09;94.97;95164.31;5079628;28;20098;-74
2022/04/20 01:40:50;;;;;;;10.13;6.20;;;;;;;0.20;94.20;95159.47;5089650;28;20040;-74
2022/04/20 01:43:16;;;;;;;10.55;6.10;;;;;;;0.12;94.96;95174.25;5084659;28;20301;-73
2022/04/20 01:45:41;;;;;;;15.43;6.75;;;;;;;0.16;94.00;95165.06;5060316;28;20082;-72
2022/04/20 01:48:07;;;;;;;9.73;6.30;;;;;;;0.15;93.32;95163.47;5064982;28;20056;-73
2022/04/20 01:50:33;;;;;;;12.77;6.43;;;;;;;0.11;93.93;95162.31;5084421;28;20059;-73
2022/04/20 01:52:59;;;;;;;11.63;6.53;;;;;;;0.07;93.93;95166.34;5080133;28;20445;-73
2022/04/20 01:55:25;;;;;;;8.25;5.70;;;;;;;0.01;93.50;95161.22;5071381;28;20056;-73
2022/04/20 01:57:52;;;;;;;10.10;6.15;;;;;;;-0.01;93.75;95158.84;5061641;28;20047;-73
2022/04/20 02:00:18;;;;;;;9.65;5.68;;;;;;;-0.07;93.25;95157.88;5075891;28;20308;-73
2022/04/20 02:02:43;;;;;;;10.10;6.30;;;;;;;-0.21;93.92;95153.81;5069648;28;20051;-73
2022/04/20 02:05:12;;;;;;;9.75;6.15;;;;;;;-0.18;94.39;95159.34;5072767;28;20505;-72
2022/04/20 02:07:38;;;;;;;8.82;6.05;;;;;;;-0.15;94.16;95162.53;5084928;28;20058;-72
2022/04/20 02:10:06;;;;;;;10.38;6.05;;;;;;;-0.16;93.31;95161.72;5078552;28;20533;-73
2022/04/20 02:12:32;;;;;;;9.38;5.93;;;;;;;-0.12;92.90;95162.09;5068657;28;20040;-74
2022/04/20 02:14:58;;;;;;;9.93;6.10;;;;;;;-0.24;93.11;95162.78;5068940;28;20406;-74
2022/04/20 02:17:23;;;;;;;12.00;6.50;;;;;;;-0.35;92.76;95171.22;5061968;28;20043;-72
2022/04/20 02:19:49;;;;;;;11.93;6.25;;;;;;;-0.43;94.20;95171.44;5085635;28;20044;-74
2022/04/20 02:22:15;;;;;;;10.98;6.50;;;;;;;-0.54;95.10;95165.94;5069790;28;20474;-74
2022/04/20 02:24:40;;;;;;;10.48;6.32;;;;;;;-0.50;95.34;95171.50;5080744;28;20051;-73
2022/04/20 02:27:08;;;;;;;10.15;6.20;;;;;;;-0.49;94.99;95167.13;5061462;28;20421;-74
2022/04/20 02:29:34;;;;;;;13.25;5.90;;;;;;;-0.47;93.98;95165.13;5068289;28;20513;-74
2022/04/20 02:32:00;;;;;;;10.15;5.95;;;;;;;-0.46;95.09;95166.69;5076130;28;20044;-74
2022/04/20 02:34:25;;;;;;;10.18;6.07;;;;;;;-0.43;93.59;95163.69;5076024;28;20097;-74
2022/04/20 02:36:51;;;;;;;10.73;6.05;;;;;;;-0.50;94.27;95170.69;5067316;28;20044;-73
2022/04/20 02:39:18;;;;;;;10.68;6.45;;;;;;;-0.55;94.85;95164.38;5070208;28;20452;-73
2022/04/20 02:41:44;;;;;;;9.93;6.35;;;;;;;-0.54;94.65;95165.16;5079461;28;20090;-74
2022/04/20 02:44:10;;;;;;;11.20;6.82;;;;;;;-0.59;95.61;95163.19;5082407;28;20048;-74
2022/04/20 02:46:36;;;;;;;12.32;7.30;;;;;;;-0.66;96.76;95162.44;5062281;28;20040;-74
2022/04/20 02:49:02;;;;;;;14.90;7.55;;;;;;;-0.66;98.73;95157.28;5073986;28;20696;-74
2022/04/20 02:51:27;;;;;;;12.20;7.65;;;;;;;-0.54;97.85;95155.59;5080963;28;20448;-72
2022/04/20 02:53:53;;;;;;;10.93;7.47;;;;;;;-0.43;97.57;95143.00;5056188;28;20055;-73
2022/04/20 02:56:18;;;;;;;13.40;7.50;;;;;;;-0.39;97.91;95154.53;5083667;28;20597;-73
2022/04/20 02:58:44;;;;;;;11.98;7.70;;;;;;;-0.29;97.50;95147.09;5068806;28;20048;-74
2022/04/20 03:01:09;;;;;;;14.18;8.27;;;;;;;-0.14;97.37;95153.75;5066819;28;20040;-73
2022/04/20 03:03:35;;;;;;;13.27;8.43;;;;;;;-0.04;96.95;95151.50;5073768;28;20051;-74
2022/04/20 03:06:01;;;;;;;13.50;8.15;;;;;;;-0.14;97.15;95153.75;5070132;28;20074;-74
2022/04/20 03:08:26;;;;;;;14.75;8.65;;;;;;;-0.09;96.83;95156.50;5072689;28;20482;-72
2022/04/20 03:10:52;;;;;;;15.45;7.88;;;;;;;-0.04;96.30;95161.84;5067430;28;20120;-73
2022/04/20 03:13:18;;;;;;;15.65;8.07;;;;;;;-0.06;95.86;95161.25;5069525;28;20048;-73
2022/04/20 03:15:44;;;;;;;13.98;8.40;;;;;;;-0.11;95.65;95158.53;5074647;28;20052;-73
2022/04/20 03:18:09;;;;;;;13.60;8.55;;;;;;;-0.22;97.30;95158.19;5077227;28;20037;-72
2022/04/20 03:20:35;;;;;;;15.38;8.48;;;;;;;-0.22;97.54;95158.19;5063665;28;20513;-73
2022/04/20 03:23:01;;;;;;;17.45;9.52;;;;;;;-0.20;97.05;95156.19;5065627;28;20047;-73
2022/04/20 03:25:26;;;;;;;15.38;9.27;;;;;;;-0.19;97.80;95157.78;5070867;28;20250;-73
2022/04/20 03:27:52;;;;;;;15.77;9.43;;;;;;;-0.13;97.16;95163.09;5061932;28;20127;-73
2022/04/20 03:30:17;;;;;;;17.00;9.60;;;;;;;-0.06;96.60;95156.91;5067891;28;20441;-74
2022/04/20 03:32:44;;;;;;;17.17;9.23;;;;;;;-0.13;96.89;95161.31;5070693;28;20032;-74
2022/04/20 03:35:10;;;;;;;15.50;9.40;;;;;;;-0.13;97.12;95160.50;5065981;28;20041;-72
2022/04/20 03:37:36;;;;;;;15.70;9.60;;;;;;;-0.15;97.53;95167.72;5063815;28;20041;-74
2022/04/20 03:40:03;;;;;;;19.05;9.95;;;;;;;-0.27;98.04;95163.19;5048985;28;20098;-73
2022/04/20 03:42:28;;;;;;;16.05;9.27;;;;;;;-0.34;97.98;95159.88;5054510;28;20048;-73
2022/04/20 03:44:54;;;;;;;18.05;10.43;;;;;;;-0.29;98.24;95152.25;5062833;28;20047;-73
2022/04/20 03:47:19;;;;;;;17.17;10.15;;;;;;;-0.33;98.72;95161.47;5069703;28;20131;-73
2022/04/20 03:49:45;;;;;;;18.42;10.15;;;;;;;-0.22;97.67;95158.19;5068693;28;20093;-73
2022/04/20 03:52:10;;;;;;;18.13;10.15;;;;;;;-0.30;98.05;95161.03;5068118;28;20041;-73
2022/04/20 03:54:36;;;;;;;18.42;10.57;;;;;;;-0.29;98.31;95152.25;5065862;28;20051;-73
2022/04/20 03:57:07;;;;;;;17.02;9.80;;;;;;;-0.33;98.42;95145.94;5060541;28;20123;-73
2022/04/20 03:59:35;;;;;;;17.25;9.85;;;;;;;-0.39;98.73;95157.09;5087603;28;20050;-73
2022/04/20 04:02:01;;;;;;;16.95;10.23;;;;;;;-0.46;99.17;95166.69;5063659;28;20388;-73
2022/04/20 04:04:27;;;;;;;18.42;10.15;;;;;;;-0.38;97.96;95163.88;5067182;28;20043;-71
2022/04/20 04:06:53;;;;;;;20.60;10.48;;;;;;;-0.49;99.21;95161.94;5068622;28;20040;-72
2022/04/20 04:09:19;;;;;;;18.60;10.68;;;;;;;-0.46;98.28;95161.53;5066599;28;20055;-73
2022/04/20 04:11:44;;;;;;;18.10;10.90;;;;;;;-0.35;97.43;95163.44;5075021;28;20032;-73
2022/04/20 04:14:10;;;;;;;18.10;10.70;;;;;;;-0.33;96.61;95171.81;5082498;28;20097;-73
2022/04/20 04:16:39;;;;;;;20.98;11.50;;;;;;;-0.48;97.42;95168.72;5071995;28;20040;-74
2022/04/20 04:19:06;;;;;;;20.77;10.88;;;;;;;-0.51;98.70;95171.72;5071964;28;20086;-74
2022/04/20 04:21:32;;;;;;;21.60;11.85;;;;;;;-0.62;98.92;95171.34;5068408;28;20131;-74
2022/04/20 04:23:58;;;;;;;26.73;11.48;;;;;;;-0.55;99.54;95179.06;5074469;28;20068;-74
2022/04/20 04:26:25;;;;;;;24.27;13.00;;;;;;;-0.58;100.00;95169.94;5067344;28;20047;-74
2022/04/20 04:28:51;;;;;;;26.55;13.35;;;;;;;-0.48;99.96;95173.88;5078905;28;20526;-72
2022/04/20 04:31:17;;;;;;;26.30;13.93;;;;;;;-0.44;99.81;95173.25;5075775;28;20102;-73
2022/04/20 04:33:42;;;;;;;28.30;14.05;;;;;;;-0.48;100.00;95174.66;5079903;28;20040;-73
2022/04/20 04:36:08;;;;;;;28.42;13.57;;;;;;;-0.38;99.55;95169.03;5072104;28;20509;-73
2022/04/20 04:38:33;;;;;;;27.15;14.30;;;;;;;-0.40;100.00;95171.06;5065159;28;20040;-73
2022/04/20 04:40:59;;;;;;;34.72;16.20;;;;;;;-0.40;100.00;95173.63;5091322;28;20479;-73
2022/04/20 04:43:25;;;;;;;29.52;15.35;;;;;;;-0.37;100.00;95171.41;5065123;28;20129;-74
2022/04/20 04:48:41;;;;;;;28.27;14.52;;;;;;;-0.26;100.00;95157.03;5091285;28;20048;-74
2022/04/20 04:51:08;;;;;;;31.98;15.73;;;;;;;-0.25;99.99;95153.44;5071863;28;20044;-74
2022/04/20 04:53:33;;;;;;;30.92;15.93;;;;;;;-0.23;100.00;95161.78;5073899;28;20033;-73
2022/04/20 04:56:00;;;;;;;37.25;16.77;;;;;;;-0.26;100.00;95166.56;5079388;28;20041;-72
2022/04/20 04:58:25;;;;;;;31.05;16.45;;;;;;;-0.23;99.98;95166.16;5053025;28;20507;-73
2022/04/20 05:00:50;;;;;;;33.95;17.23;;;;;;;-0.22;100.00;95168.53;5056130;28;20063;-73
2022/04/20 05:03:17;;;;;;;34.53;16.50;;;;;;;-0.21;100.00;95162.34;5071012;28;20494;-74
2022/04/20 05:05:45;;;;;;;41.85;19.05;;;;;;;-0.19;100.00;95165.53;5074049;28;20405;-73
2022/04/20 05:08:11;;;;;;;41.30;17.90;;;;;;;-0.13;100.00;95165.69;5068760;28;20094;-74
2022/04/20 05:10:37;;;;;;;49.53;19.48;;;;;;;0.01;100.00;95167.16;5068452;28;20040;-73
2022/04/20 05:13:03;;;;;;;38.78;18.10;;;;;;;0.06;100.00;95169.94;5072357;28;20037;-73
2022/04/20 05:15:29;;;;;;;41.47;18.63;;;;;;;0.10;100.00;95176.28;5070183;28;20411;-74
2022/04/20 05:17:55;;;;;;;39.42;19.00;;;;;;;0.28;100.00;95172.13;5082350;28;20101;-74
2022/04/20 05:20:21;;;;;;;46.22;20.00;;;;;;;0.36;99.12;95178.84;5051061;28;20546;-74
2022/04/20 05:22:47;;;;;;;47.88;20.25;;;;;;;0.23;100.00;95169.38;5063486;28;20052;-73
2022/04/20 05:25:13;;;;;;;40.35;19.75;;;;;;;0.31;99.90;95166.53;5070180;28;20129;-73
2022/04/20 05:27:38;;;;;;;43.60;19.50;;;;;;;0.40;100.00;95174.81;5057235;28;20510;-74
2022/04/20 05:30:06;;;;;;;39.15;18.75;;;;;;;0.46;100.00;95172.19;5076904;28;20243;-74
2022/04/20 05:32:31;;;;;;;46.67;20.60;;;;;;;0.62;99.11;95168.22;5074804;28;20081;-73
2022/04/20 05:34:57;;;;;;;45.28;20.48;;;;;;;0.49;99.03;95170.97;5087718;28;20437;-73
2022/04/20 05:42:53;;;;;;;49.35;22.85;;;;;;;0.66;98.99;95177.16;5058462;28;20486;-72
2022/04/20 05:45:18;;;;;;;45.42;19.73;;;;;;;0.70;98.85;95174.91;5075436;28;20045;-73
2022/04/20 05:47:44;;;;;;;51.00;21.70;;;;;;;0.88;98.22;95186.28;5069627;28;20488;-73
2022/04/20 05:50:09;;;;;;;50.03;21.15;;;;;;;0.89;98.06;95172.34;5069804;28;20551;-73
2022/04/20 05:52:35;;;;;;;48.50;21.25;;;;;;;1.03;97.98;95178.94;5063923;28;20071;-73
2022/04/20 05:55:01;;;;;;;45.83;21.10;;;;;;;1.13;97.89;95184.41;5079720;28;20041;-74
2022/04/20 05:57:27;;;;;;;49.05;20.52;;;;;;;1.21;97.32;95178.94;5067385;28;20041;-73
2022/04/20 05:59:52;;;;;;;52.05;20.13;;;;;;;1.48;96.20;95186.41;5088897;28;20044;-73
2022/04/20 06:02:18;;;;;;;56.70;20.92;;;;;;;1.36;95.99;95182.94;5082057;28;20079;-72
2022/04/20 06:04:43;;;;;;;51.80;21.23;;;;;;;1.56;95.92;95187.88;5070867;28;20056;-73
2022/04/20 06:07:09;;;;;;;50.33;21.33;;;;;;;1.46;96.22;95187.63;5059733;28;20564;-73
2022/04/20 06:09:34;;;;;;;50.22;21.75;;;;;;;1.40;96.14;95183.31;5074366;28;20725;-73
2022/04/20 06:12:00;;;;;;;55.25;21.95;;;;;;;1.52;95.53;95182.34;5069343;28;20053;-73
2022/04/20 06:14:26;;;;;;;49.92;21.02;;;;;;;1.41;95.47;95185.69;5080115;28;20051;-73
2022/04/20 06:16:51;;;;;;;52.53;22.80;;;;;;;1.53;96.09;95189.09;5074890;28;20131;-73
2022/04/20 06:19:17;;;;;;;52.92;21.98;;;;;;;1.61;95.21;95185.44;5070747;28;20047;-73
2022/04/20 06:21:43;;;;;;;47.40;20.13;;;;;;;1.77;94.87;95189.19;5069981;28;20040;-73
2022/04/20 06:24:08;;;;;;;47.30;20.30;;;;;;;1.86;93.94;95182.66;5063836;28;20052;-75
2022/04/20 06:26:34;;;;;;;47.92;19.55;;;;;;;1.94;94.41;95172.97;5073588;28;20116;-72
2022/04/20 06:28:59;;;;;;;49.53;19.85;;;;;;;2.14;92.33;95172.66;5070525;28;20041;-72
2022/04/20 06:31:25;;;;;;;51.38;21.80;;;;;;;2.07;93.31;95167.59;5081082;28;20052;-73
2022/04/20 06:33:52;;;;;;;49.55;20.83;;;;;;;2.08;92.95;95164.78;5079806;28;20047;-72
2022/04/20 06:36:17;;;;;;;49.10;19.85;;;;;;;2.29;93.22;95165.25;5072609;28;20126;-73
2022/04/20 06:38:43;;;;;;;47.17;19.63;;;;;;;2.32;91.74;95164.00;5072087;28;20100;-73
2022/04/20 06:41:08;;;;;;;59.80;20.85;;;;;;;2.39;92.84;95175.84;5067376;28;20052;-72
2022/04/20 06:43:35;;;;;;;46.53;19.05;;;;;;;2.40;92.46;95171.47;5068647;28;20048;-72
2022/04/20 06:46:02;;;;;;;47.65;18.35;;;;;;;2.43;91.49;95165.81;5074523;28;20049;-72
2022/04/20 06:48:27;;;;;;;45.67;19.33;;;;;;;2.66;90.34;95166.81;5060178;28;20041;-72
2022/04/20 06:50:53;;;;;;;40.15;16.83;;;;;;;2.81;89.43;95161.94;5072220;28;20047;-72
2022/04/20 06:58:48;;;;;;;33.30;15.73;;;;;;;2.81;87.86;95161.94;5068198;28;20091;-72
2022/04/20 07:01:15;;;;;;;33.17;14.90;;;;;;;2.91;87.43;95162.13;5074106;28;20044;-72
2022/04/20 07:03:41;;;;;;;32.05;14.90;;;;;;;2.94;84.99;95172.09;5070813;28;20155;-72
2022/04/20 07:06:07;;;;;;;34.42;14.05;;;;;;;3.11;85.75;95166.97;5046784;28;20060;-73
2022/04/20 07:08:33;;;;;;;28.42;13.23;;;;;;;3.08;86.12;95161.44;5074008;28;20415;-71
2022/04/20 07:10:59;;;;;;;30.63;13.15;;;;;;;3.36;84.11;95162.47;5069059;28;20045;-70
2022/04/20 07:13:25;;;;;;;25.65;12.40;;;;;;;3.27;83.66;95162.84;5067920;28;20105;-72
2022/04/20 07:15:51;;;;;;;24.42;12.13;;;;;;;3.31;84.76;95160.56;5061037;28;20098;-72
2022/04/20 07:18:16;;;;;;;27.02;12.85;;;;;;;3.44;82.30;95159.50;5067602;28;20043;-72
2022/04/20 07:20:42;;;;;;;24.60;10.80;;;;;;;3.73;80.70;95156.91;5061051;28;20060;-72
2022/04/20 07:23:09;;;;;;;21.20;10.52;;;;;;;3.78;79.88;95154.38;5058899;28;20406;-72
2022/04/20 07:25:36;;;;;;;23.83;11.13;;;;;;;3.86;80.00;95161.78;5082426;28;20047;-71
2022/04/20 07:28:03;;;;;;;22.90;11.43;;;;;;;4.16;78.84;95147.69;5064876;28;20124;-72
2022/04/20 07:30:29;;;;;;;27.60;12.57;;;;;;;4.02;80.48;95151.63;5067669;28;20041;-74
2022/04/20 07:32:54;;;;;;;24.70;13.98;;;;;;;3.96;81.66;95141.13;5065058;28;20044;-72
2022/04/20 07:35:20;;;;;;;27.00;12.57;;;;;;;3.91;82.45;95151.47;5072492;28;20037;-74
2022/04/20 07:37:46;;;;;;;22.65;12.20;;;;;;;3.99;83.52;95151.09;5067465;28;20095;-74
2022/04/20 07:40:15;;;;;;;22.38;10.88;;;;;;;4.04;79.62;95152.19;5058715;28;20044;-73
2022/04/20 07:42:41;;;;;;;15.43;9.40;;;;;;;4.34;76.90;95150.06;5061866;28;20517;-75
2022/04/20 07:45:07;;;;;;;19.02;9.23;;;;;;;4.75;75.63;95151.66;5069515;28;20460;-74
2022/04/20 07:47:33;;;;;;;16.80;8.70;;;;;;;4.59;76.32;95148.81;5068632;28;20048;-74
2022/04/20 07:52:45;;;;;;;18.60;9.70;;;;;;;4.36;77.66;95159.44;5061787;28;20040;-73
2022/04/20 07:55:16;;;;;;;15.57;8.85;;;;;;;4.44;76.08;95161.63;5077580;28;20036;-73
2022/04/20 07:57:43;;;;;;;15.30;9.07;;;;;;;4.56;76.45;95154.53;5064812;28;20519;-73
2022/04/20 08:00:10;;;;;;;16.10;9.05;;;;;;;4.53;76.20;95155.00;5073569;28;20036;-73
2022/04/20 08:02:35;;;;;;;14.93;8.60;;;;;;;4.55;74.08;95152.94;5077955;28;20048;-71
2022/04/20 08:05:01;;;;;;;13.07;7.50;;;;;;;4.64;73.04;95156.72;5075301;28;20086;-73
2022/04/20 08:07:27;;;;;;;13.50;7.45;;;;;;;4.75;72.27;95156.88;5066375;28;20048;-73
2022/04/20 08:09:53;;;;;;;11.68;7.05;;;;;;;4.93;70.69;95156.59;5070674;28;20040;-75
2022/04/20 08:12:19;;;;;;;10.05;6.07;;;;;;;5.11;68.64;95165.13;5089764;28;20059;-73
2022/04/20 08:14:44;;;;;;;12.45;6.97;;;;;;;5.07;68.81;95164.03;5072433;28;20036;-72
2022/04/20 08:17:10;;;;;;;14.57;6.57;;;;;;;5.09;68.61;95169.81;5079959;28;20045;-73
2022/04/20 08:19:36;;;;;;;11.30;7.20;;;;;;;5.15;67.47;95163.63;5071529;28;20068;-76
2022/04/20 08:22:01;;;;;;;14.85;7.13;;;;;;;5.21;66.49;95165.25;5087700;28;20032;-74
2022/04/20 08:24:27;;;;;;;10.60;5.63;;;;;;;5.41;64.12;95169.13;5080584;28;20040;-75
2022/04/20 08:26:52;;;;;;;11.18;4.97;;;;;;;5.57;64.11;95163.03;5081209;28;20119;-74
2022/04/20 08:29:18;;;;;;;8.88;4.97;;;;;;;5.49;63.98;95150.44;5077632;28;20040;-73
2022/04/20 08:31:43;;;;;;;10.35;6.25;;;;;;;5.65;64.64;95159.97;5079249;28;20044;-73
2022/04/20 08:34:09;;;;;;;10.57;5.50;;;;;;;5.58;64.52;95159.38;5074927;28;20098;-73
2022/04/20 08:36:34;;;;;;;7.93;4.82;;;;;;;5.75;58.80;95158.50;5068807;28;20041;-73
2022/04/20 08:39:01;;;;;;;8.27;4.43;;;;;;;5.73;59.51;95151.72;5067499;28;20040;-72
2022/04/20 08:41:26;;;;;;;7.35;4.55;;;;;;;6.10;60.54;95144.22;5072594;28;20044;-72
2022/04/20 08:43:52;;;;;;;8.90;5.00;;;;;;;6.09;60.93;95158.31;5075280;28;20040;-73
2022/04/20 08:46:18;;;;;;;8.32;4.80;;;;;;;5.97;58.08;95154.03;5060457;28;20040;-72
2022/04/20 08:48:44;;;;;;;10.85;4.57;;;;;;;6.09;59.58;95160.91;5069683;28;20413;-75
2022/04/20 08:51:11;;;;;;;9.23;4.90;;;;;;;6.12;60.12;95153.38;5070364;28;20052;-73
2022/04/20 08:53:37;;;;;;;9.90;5.80;;;;;;;6.09;60.01;95148.63;5062556;28;20450;-74
2022/04/20 08:58:50;;;;;;;12.40;5.90;;;;;;;6.70;59.62;95148.25;5059784;28;20040;-73
2022/04/20 09:01:17;;;;;;;11.52;5.40;;;;;;;6.90;60.18;95152.03;5077943;28;20039;-77
2022/04/20 09:03:46;;;;;;;9.10;5.75;;;;;;;6.70;59.81;95137.81;5071372;28;20521;-76
2022/04/20 09:06:15;;;;;;;12.15;6.53;;;;;;;6.57;61.40;95138.25;5070235;28;20406;-77
2022/04/20 09:08:41;;;;;;;9.30;5.65;;;;;;;6.63;61.60;95137.25;5092177;28;20040;-78
2022/04/20 09:11:08;;;;;;;9.82;5.55;;;;;;;6.82;62.71;95142.81;5075028;28;20033;-74
2022/04/20 09:13:41;;;;;;;10.35;5.30;;;;;;;7.14;58.93;95146.38;5057641;28;20041;-75
2022/04/20 09:16:11;;;;;;;10.85;5.80;;;;;;;6.90;59.18;95141.56;5068137;28;20056;-74
2022/04/20 09:18:39;;;;;;;9.02;5.43;;;;;;;6.92;58.49;95129.00;5089108;28;20044;-75
2022/04/20 09:21:11;;;;;;;7.38;4.72;;;;;;;7.22;58.32;95135.41;5091268;28;20062;-75
2022/04/20 09:23:38;;;;;;;6.13;4.18;;;;;;;7.70;55.70;95141.31;5078296;28;20104;-75
2022/04/20 09:26:24;;;;;;;5.20;3.45;;;;;;;7.55;52.48;95130.78;5071739;28;20044;-75
2022/04/20 09:29:06;;;;;;;7.68;3.92;;;;;;;7.58;51.38;95132.91;5060750;28;20044;-75
2022/04/20 09:31:46;;;;;;;6.00;3.58;;;;;;;7.93;52.00;95126.13;5064532;28;20106;-75
2022/04/20 09:34:53;;;;;;;7.30;3.90;;;;;;;7.83;52.61;95131.34;5069333;28;20047;-75
2022/04/20 09:37:16;;;;;;;9.73;4.07;;;;;;;7.91;53.03;95133.47;5072447;28;20059;-75
2022/04/20 09:39:46;;;;;;;7.25;3.83;;;;;;;8.08;51.64;95128.75;5079945;28;20037;-75
2022/04/20 09:42:12;;;;;;;6.72;4.18;;;;;;;7.91;51.07;95117.75;5074042;28;20610;-75
2022/04/20 09:44:51;;;;;;;5.13;3.35;;;;;;;8.12;51.96;95114.06;5071621;28;20036;-74
2022/04/20 09:50:05;;;;;;;7.97;4.47;;;;;;;8.25;51.11;95106.72;5075565;28;20044;-75
2022/04/20 09:52:42;;;;;;;7.53;4.30;;;;;;;8.15;51.60;95113.53;5090195;28;20078;-75
2022/04/20 09:55:13;;;;;;;6.50;4.03;;;;;;;8.34;50.57;95105.13;5088899;28;20044;-75
2022/04/20 09:57:39;;;;;;;5.97;3.60;;;;;;;8.68;50.30;95104.59;5062703;28;20124;-75
2022/04/20 10:00:09;;;;;;;5.72;3.85;;;;;;;8.75;49.39;95102.47;5086399;28;20036;-75
2022/04/20 10:02:43;;;;;;;8.07;4.50;;;;;;;8.53;49.29;95104.63;5070066;28;20041;-75
2022/04/20 10:05:09;;;;;;;6.87;4.20;;;;;;;9.05;48.85;95103.41;5074124;28;20093;-75
2022/04/20 10:07:34;;;;;;;6.57;3.13;;;;;;;9.31;45.44;95095.38;5067170;28;20041;-75
2022/04/20 10:10:00;;;;;;;5.72;3.03;;;;;;;9.30;43.70;95094.63;5071615;28;20073;-75
2022/04/20 10:12:29;;;;;;;5.75;3.60;;;;;;;9.31;43.22;95096.19;5076150;28;20491;-75
2022/04/20 10:17:45;;;;;;;5.10;2.88;;;;;;;10.21;42.75;95091.63;5069860;28;20111;-75
2022/04/20 10:20:11;;;;;;;9.27;4.43;;;;;;;10.47;42.51;95099.28;5049282;28;20052;-75
2022/04/20 10:22:39;;;;;;;7.78;4.40;;;;;;;11.12;42.83;95092.81;5064569;28;20138;-76
2022/04/20 10:25:06;;;;;;;4.15;2.80;;;;;;;11.13;37.15;95096.22;5068726;28;20045;-76
2022/04/20 10:27:47;;;;;;;6.03;2.90;;;;;;;11.93;36.54;95090.09;5066349;28;20045;-76
2022/04/20 10:30:21;;;;;;;5.50;2.90;;;;;;;11.39;35.51;95075.59;5075822;28;20044;-76
2022/04/20 10:33:09;;;;;;;6.07;3.40;;;;;;;12.58;36.15;95070.00;5073181;28;20040;-75
2022/04/20 10:35:55;;;;;;;5.22;3.33;;;;;;;13.22;34.14;95069.31;5070331;28;20526;-78
2022/04/20 10:38:21;;;;;;;7.72;3.83;;;;;;;12.99;35.62;95065.81;5078956;28;20040;-75
2022/04/20 10:41:09;;;;;;;8.23;5.20;;;;;;;12.58;36.72;95062.09;5085272;28;20070;-75
2022/04/20 10:43:39;;;;;;;10.50;5.20;;;;;;;13.38;37.38;95061.09;5089484;28;20098;-76
2022/04/20 10:46:14;;;;;;;10.40;5.55;;;;;;;13.71;35.95;95058.25;5068374;28;20048;-76
2022/04/20 10:48:58;;;;;;;10.55;5.80;;;;;;;12.93;37.11;95057.22;5073432;28;20103;-75
2022/04/20 10:51:32;;;;;;;9.70;5.80;;;;;;;12.80;35.93;95055.34;5069680;28;20502;-75
2022/04/20 10:54:19;;;;;;;10.45;5.55;;;;;;;13.06;36.76;95050.34;5066166;28;20048;-76
2022/04/20 10:56:49;;;;;;;8.82;5.60;;;;;;;14.14;35.78;95050.59;5071411;28;20056;-75
2022/04/20 10:59:14;;;;;;;10.95;6.10;;;;;;;14.54;34.51;95047.22;5062268;28;20040;-75
2022/04/20 11:01:58;;;;;;;11.75;5.80;;;;;;;13.61;34.45;95049.47;5077038;28;20490;-74
2022/04/20 11:04:42;;;;;;;9.60;5.68;;;;;;;12.86;34.98;95043.63;5068355;28;20052;-75
2022/04/20 11:07:07;;;;;;;12.98;6.05;;;;;;;13.57;36.26;95048.50;5084251;28;20040;-75
2022/04/20 11:09:42;;;;;;;10.63;6.25;;;;;;;14.99;35.38;95044.41;5075960;28;20116;-73
2022/04/20 11:21:11;;;;;;;8.35;5.78;;;;;;;15.38;31.96;95018.09;5071132;28;20040;-75
2022/04/20 11:23:53;;;;;;;14.35;6.50;;;;;;;14.66;34.23;95028.88;5080895;28;20604;-75
2022/04/20 11:26:20;;;;;;;8.48;6.00;;;;;;;15.44;33.36;95024.03;5073717;28;20048;-76
2022/04/20 11:28:49;;;;;;;8.48;5.90;;;;;;;14.40;34.78;95014.75;5061605;28;20136;-77
2022/04/20 11:31:16;;;;;;;7.55;5.75;;;;;;;14.35;34.01;95008.50;5079205;28;20596;-77
2022/04/20 11:33:42;;;;;;;8.88;5.45;;;;;;;15.39;34.12;95012.50;5081630;28;20044;-77
2022/04/20 11:36:15;;;;;;;10.70;5.25;;;;;;;15.88;33.75;95011.56;5074006;28;20044;-76
2022/04/20 11:38:43;;;;;;;8.07;5.57;;;;;;;15.69;32.21;95007.34;5081513;28;20040;-74
2022/04/20 11:41:10;;;;;;;11.40;5.50;;;;;;;16.50;33.09;95010.28;5076325;28;20040;-73
2022/04/20 11:43:37;;;;;;;8.00;5.22;;;;;;;18.26;31.61;95007.13;5079671;28;20040;-74
2022/04/20 11:46:04;;;;;;;7.28;5.20;;;;;;;17.63;29.24;95002.72;5071710;28;20163;-73
2022/04/20 11:48:32;;;;;;;8.77;5.18;;;;;;;15.41;30.82;95010.31;5078537;28;20055;-72
2022/04/20 11:51:06;;;;;;;7.25;5.25;;;;;;;15.92;30.98;95007.19;5072651;28;20051;-73
2022/04/20 11:53:38;;;;;;;7.75;5.10;;;;;;;15.44;31.77;94998.28;5070214;28;20032;-72
2022/04/20 11:56:07;;;;;;;7.95;5.35;;;;;;;16.14;30.55;94992.91;5070392;28;20046;-72
2022/04/20 11:58:34;;;;;;;12.52;5.43;;;;;;;16.53;30.64;94992.94;5081829;28;20044;-73
2022/04/20 12:01:01;;;;;;;7.68;5.50;;;;;;;15.89;29.74;94994.56;5074571;28;20460;-73
2022/04/20 12:03:36;;;;;;;7.43;4.68;;;;;;;16.55;29.30;94990.72;5058051;28;20040;-72